sensor_id;sensor_type;location;lat;lon;timestamp;pressure;altitude;pressure_sealevel;temperature;humidity
66703;BME280;60933;46.398;-63.798;2024-03-23T00:56:10;101730.53;;;-4.04;50.37
66703;BME280;60933;46.398;-63.798;2024-03-23T00:58:36;101745.75;;;-4.02;51.74
66703;BME280;60933;46.398;-63.798;2024-03-23T01:01:03;101734.81;;;-4.03;52.04
66703;BME280;60933;46.398;-63.798;2024-03-23T01:03:30;101763.50;;;-4.01;52.33
66703;BME280;60933;46.398;-63.798;2024-03-23T01:06:00;101772.63;;;-4.03;52.51
66703;BME280;60933;46.398;-63.798;2024-03-23T01:08:27;101757.44;;;-4.04;52.86
66703;BME280;60933;46.398;-63.798;2024-03-23T01:10:58;101769.88;;;-4.07;53.03
66703;BME280;60933;46.398;-63.798;2024-03-23T01:13:25;101787.13;;;-4.15;53.29
66703;BME280;60933;46.398;-63.798;2024-03-23T01:15:53;101803.13;;;-4.15;51.47
66703;BME280;60933;46.398;-63.798;2024-03-23T01:18:21;101786.19;;;-4.17;50.39
66703;BME280;60933;46.398;-63.798;2024-03-23T01:20:48;101790.75;;;-4.26;51.03
66703;BME280;60933;46.398;-63.798;2024-03-23T01:23:14;101821.88;;;-4.26;50.94
66703;BME280;60933;46.398;-63.798;2024-03-23T01:25:41;101793.25;;;-4.26;51.08
66703;BME280;60933;46.398;-63.798;2024-03-23T01:28:08;101837.69;;;-4.29;51.15
66703;BME280;60933;46.398;-63.798;2024-03-23T01:30:34;101788.53;;;-4.37;51.30
66703;BME280;60933;46.398;-63.798;2024-03-23T01:33:02;101799.47;;;-4.36;51.78
66703;BME280;60933;46.398;-63.798;2024-03-23T01:35:31;101790.88;;;-4.40;51.74
66703;BME280;60933;46.398;-63.798;2024-03-23T01:37:58;101811.50;;;-4.47;51.36
66703;BME280;60933;46.398;-63.798;2024-03-23T01:40:25;101854.50;;;-4.44;51.75
66703;BME280;60933;46.398;-63.798;2024-03-23T01:43:07;101823.22;;;-4.48;51.64
66703;BME280;60933;46.398;-63.798;2024-03-23T01:45:36;101804.22;;;-4.57;51.05
66703;BME280;60933;46.398;-63.798;2024-03-23T01:48:03;101809.97;;;-4.60;51.13
66703;BME280;60933;46.398;-63.798;2024-03-23T01:50:31;101827.34;;;-4.65;51.38
66703;BME280;60933;46.398;-63.798;2024-03-23T01:53:02;101826.06;;;-4.73;51.36
66703;BME280;60933;46.398;-63.798;2024-03-23T01:55:32;101838.78;;;-4.71;50.40
66703;BME280;60933;46.398;-63.798;2024-03-23T01:57:59;101837.63;;;-4.77;50.56
66703;BME280;60933;46.398;-63.798;2024-03-23T02:00:25;101849.19;;;-4.80;50.62
66703;BME280;60933;46.398;-63.798;2024-03-23T02:02:54;101883.50;;;-4.82;50.13
66703;BME280;60933;46.398;-63.798;2024-03-23T02:05:22;101869.78;;;-4.87;49.93
66703;BME280;60933;46.398;-63.798;2024-03-23T02:07:48;101871.34;;;-4.89;49.81
66703;BME280;60933;46.398;-63.798;2024-03-23T02:10:15;101864.13;;;-4.98;48.85
66703;BME280;60933;46.398;-63.798;2024-03-23T02:12:42;101889.25;;;-5.00;49.48
66703;BME280;60933;46.398;-63.798;2024-03-23T02:15:09;101895.84;;;-5.02;49.58
66703;BME280;60933;46.398;-63.798;2024-03-23T02:17:36;101891.41;;;-5.06;50.02
66703;BME280;60933;46.398;-63.798;2024-03-23T02:20:03;101890.59;;;-5.05;49.79
66703;BME280;60933;46.398;-63.798;2024-03-23T02:22:39;101913.97;;;-5.07;50.37
66703;BME280;60933;46.398;-63.798;2024-03-23T02:25:06;101876.03;;;-5.11;50.35
66703;BME280;60933;46.398;-63.798;2024-03-23T02:27:33;101857.41;;;-5.28;50.80
66703;BME280;60933;46.398;-63.798;2024-03-23T02:30:02;101879.00;;;-5.18;50.43
66703;BME280;60933;46.398;-63.798;2024-03-23T02:32:28;101894.94;;;-5.17;49.92
66703;BME280;60933;46.398;-63.798;2024-03-23T02:34:55;101890.53;;;-5.21;50.10
66703;BME280;60933;46.398;-63.798;2024-03-23T02:37:21;101882.78;;;-5.25;49.98
66703;BME280;60933;46.398;-63.798;2024-03-23T02:39:48;101923.84;;;-5.26;49.75
66703;BME280;60933;46.398;-63.798;2024-03-23T02:42:15;101888.94;;;-5.34;50.05
66703;BME280;60933;46.398;-63.798;2024-03-23T02:44:44;101908.81;;;-5.39;49.90
66703;BME280;60933;46.398;-63.798;2024-03-23T02:47:11;101917.13;;;-5.40;50.18
66703;BME280;60933;46.398;-63.798;2024-03-23T02:49:38;101936.28;;;-5.42;49.31
66703;BME280;60933;46.398;-63.798;2024-03-23T02:52:04;101961.47;;;-5.42;49.56
66703;BME280;60933;46.398;-63.798;2024-03-23T02:54:31;101973.88;;;-5.45;49.54
66703;BME280;60933;46.398;-63.798;2024-03-23T02:56:57;101987.13;;;-5.48;49.90
66703;BME280;60933;46.398;-63.798;2024-03-23T02:59:24;101985.28;;;-5.50;50.26
66703;BME280;60933;46.398;-63.798;2024-03-23T03:01:50;101996.13;;;-5.51;49.44
66703;BME280;60933;46.398;-63.798;2024-03-23T03:04:17;101986.88;;;-5.52;49.55
66703;BME280;60933;46.398;-63.798;2024-03-23T03:06:47;101979.88;;;-5.57;49.44
66703;BME280;60933;46.398;-63.798;2024-03-23T03:09:13;102000.00;;;-5.57;49.91
66703;BME280;60933;46.398;-63.798;2024-03-23T03:11:40;102006.03;;;-5.68;49.38
66703;BME280;60933;46.398;-63.798;2024-03-23T03:14:06;102016.97;;;-5.67;49.45
66703;BME280;60933;46.398;-63.798;2024-03-23T03:16:33;102004.88;;;-5.73;49.73
66703;BME280;60933;46.398;-63.798;2024-03-23T03:19:00;102015.91;;;-5.71;49.99
66703;BME280;60933;46.398;-63.798;2024-03-23T03:21:27;102001.78;;;-5.69;49.76
66703;BME280;60933;46.398;-63.798;2024-03-23T03:23:54;102040.38;;;-5.68;49.85
66703;BME280;60933;46.398;-63.798;2024-03-23T03:26:22;102011.19;;;-5.80;49.91
66703;BME280;60933;46.398;-63.798;2024-03-23T03:28:50;102018.81;;;-5.78;49.53
66703;BME280;60933;46.398;-63.798;2024-03-23T03:31:17;102022.31;;;-5.76;49.42
66703;BME280;60933;46.398;-63.798;2024-03-23T03:33:44;102034.88;;;-5.76;50.09
66703;BME280;60933;46.398;-63.798;2024-03-23T03:36:11;102042.22;;;-5.79;49.38
66703;BME280;60933;46.398;-63.798;2024-03-23T03:38:38;102024.44;;;-5.82;49.48
66703;BME280;60933;46.398;-63.798;2024-03-23T03:41:05;102024.31;;;-5.84;49.66
66703;BME280;60933;46.398;-63.798;2024-03-23T03:43:32;102020.84;;;-5.86;50.23
66703;BME280;60933;46.398;-63.798;2024-03-23T03:46:00;102036.53;;;-5.90;49.64
66703;BME280;60933;46.398;-63.798;2024-03-23T03:48:27;102026.94;;;-5.96;49.27
66703;BME280;60933;46.398;-63.798;2024-03-23T03:50:53;102037.53;;;-6.01;49.52
66703;BME280;60933;46.398;-63.798;2024-03-23T03:53:20;102047.47;;;-6.03;49.77
66703;BME280;60933;46.398;-63.798;2024-03-23T03:55:47;102047.38;;;-6.05;49.40
66703;BME280;60933;46.398;-63.798;2024-03-23T03:58:13;102017.91;;;-6.07;49.19
66703;BME280;60933;46.398;-63.798;2024-03-23T04:00:40;102031.03;;;-6.11;48.22
66703;BME280;60933;46.398;-63.798;2024-03-23T04:03:06;102018.28;;;-6.14;48.85
66703;BME280;60933;46.398;-63.798;2024-03-23T04:05:33;102035.09;;;-6.13;49.33
66703;BME280;60933;46.398;-63.798;2024-03-23T04:08:00;102036.66;;;-6.15;49.24
66703;BME280;60933;46.398;-63.798;2024-03-23T04:10:26;102051.50;;;-6.18;48.75
66703;BME280;60933;46.398;-63.798;2024-03-23T04:12:53;102040.59;;;-6.19;49.12
66703;BME280;60933;46.398;-63.798;2024-03-23T04:15:20;102038.66;;;-6.23;48.85
66703;BME280;60933;46.398;-63.798;2024-03-23T04:17:47;102069.47;;;-6.26;48.13
66703;BME280;60933;46.398;-63.798;2024-03-23T04:20:13;102045.03;;;-6.28;48.36
66703;BME280;60933;46.398;-63.798;2024-03-23T04:22:43;102039.69;;;-6.33;48.69
66703;BME280;60933;46.398;-63.798;2024-03-23T04:25:10;102041.81;;;-6.39;49.19
66703;BME280;60933;46.398;-63.798;2024-03-23T04:27:37;102060.09;;;-6.42;48.93
66703;BME280;60933;46.398;-63.798;2024-03-23T04:30:04;102064.34;;;-6.41;49.89
66703;BME280;60933;46.398;-63.798;2024-03-23T04:32:36;102097.78;;;-6.42;50.35
66703;BME280;60933;46.398;-63.798;2024-03-23T04:35:03;102094.59;;;-6.39;50.68
66703;BME280;60933;46.398;-63.798;2024-03-23T04:37:33;102117.97;;;-6.40;50.17
66703;BME280;60933;46.398;-63.798;2024-03-23T04:40:00;102100.16;;;-6.43;49.49
66703;BME280;60933;46.398;-63.798;2024-03-23T04:42:28;102086.66;;;-6.45;49.64
66703;BME280;60933;46.398;-63.798;2024-03-23T04:44:54;102097.47;;;-6.46;49.37
66703;BME280;60933;46.398;-63.798;2024-03-23T04:47:21;102088.63;;;-6.53;49.44
66703;BME280;60933;46.398;-63.798;2024-03-23T04:49:47;102095.88;;;-6.58;49.39
66703;BME280;60933;46.398;-63.798;2024-03-23T04:52:14;102085.63;;;-6.61;48.97
66703;BME280;60933;46.398;-63.798;2024-03-23T04:54:41;102094.78;;;-6.61;49.86
66703;BME280;60933;46.398;-63.798;2024-03-23T04:57:08;102098.97;;;-6.62;50.12
66703;BME280;60933;46.398;-63.798;2024-03-23T04:59:35;102101.47;;;-6.62;50.13
66703;BME280;60933;46.398;-63.798;2024-03-23T05:02:01;102097.66;;;-6.69;49.36
66703;BME280;60933;46.398;-63.798;2024-03-23T05:04:29;102075.69;;;-6.85;48.89
66703;BME280;60933;46.398;-63.798;2024-03-23T05:06:55;102111.66;;;-6.72;48.67
66703;BME280;60933;46.398;-63.798;2024-03-23T05:09:22;102118.88;;;-6.77;48.76
66703;BME280;60933;46.398;-63.798;2024-03-23T05:11:48;102109.50;;;-6.79;49.16
66703;BME280;60933;46.398;-63.798;2024-03-23T05:14:15;102107.75;;;-6.80;49.21
66703;BME280;60933;46.398;-63.798;2024-03-23T05:16:42;102130.25;;;-6.82;49.68
66703;BME280;60933;46.398;-63.798;2024-03-23T05:19:08;102117.59;;;-6.84;49.74
66703;BME280;60933;46.398;-63.798;2024-03-23T05:21:35;102118.38;;;-6.85;49.59
66703;BME280;60933;46.398;-63.798;2024-03-23T05:24:01;102117.38;;;-6.87;49.94
66703;BME280;60933;46.398;-63.798;2024-03-23T05:26:29;102125.69;;;-6.88;49.41
66703;BME280;60933;46.398;-63.798;2024-03-23T05:28:55;102141.72;;;-6.86;49.52
66703;BME280;60933;46.398;-63.798;2024-03-23T05:31:26;102121.22;;;-6.92;48.92
66703;BME280;60933;46.398;-63.798;2024-03-23T05:33:53;102122.53;;;-6.97;48.94
66703;BME280;60933;46.398;-63.798;2024-03-23T05:36:19;102132.47;;;-6.98;49.38
66703;BME280;60933;46.398;-63.798;2024-03-23T05:38:46;102156.59;;;-7.01;49.36
66703;BME280;60933;46.398;-63.798;2024-03-23T05:41:13;102135.66;;;-7.01;49.39
66703;BME280;60933;46.398;-63.798;2024-03-23T05:43:40;102136.22;;;-7.05;50.07
66703;BME280;60933;46.398;-63.798;2024-03-23T05:46:06;102152.03;;;-7.06;50.20
66703;BME280;60933;46.398;-63.798;2024-03-23T05:48:36;102139.59;;;-7.05;49.81
66703;BME280;60933;46.398;-63.798;2024-03-23T05:51:03;102149.31;;;-7.09;51.24
66703;BME280;60933;46.398;-63.798;2024-03-23T05:53:29;102147.78;;;-7.07;51.30
66703;BME280;60933;46.398;-63.798;2024-03-23T05:56:03;102157.16;;;-7.05;51.94
66703;BME280;60933;46.398;-63.798;2024-03-23T05:58:30;102168.84;;;-7.05;51.41
66703;BME280;60933;46.398;-63.798;2024-03-23T06:01:00;102152.03;;;-7.06;51.07
66703;BME280;60933;46.398;-63.798;2024-03-23T06:03:28;102146.03;;;-7.08;51.22
66703;BME280;60933;46.398;-63.798;2024-03-23T06:05:55;102157.59;;;-7.10;51.65
66703;BME280;60933;46.398;-63.798;2024-03-23T06:08:22;102171.34;;;-7.05;50.65
66703;BME280;60933;46.398;-63.798;2024-03-23T06:10:50;102161.09;;;-7.08;50.69
66703;BME280;60933;46.398;-63.798;2024-03-23T06:13:17;102172.00;;;-7.08;50.77
66703;BME280;60933;46.398;-63.798;2024-03-23T06:15:47;102175.91;;;-7.11;50.77
66703;BME280;60933;46.398;-63.798;2024-03-23T06:18:15;102188.28;;;-7.14;50.75
66703;BME280;60933;46.398;-63.798;2024-03-23T06:20:41;102181.59;;;-7.14;50.91
66703;BME280;60933;46.398;-63.798;2024-03-23T06:23:08;102179.66;;;-7.18;50.82
66703;BME280;60933;46.398;-63.798;2024-03-23T06:25:35;102184.34;;;-7.23;51.23
66703;BME280;60933;46.398;-63.798;2024-03-23T06:28:01;102188.94;;;-7.29;51.03
66703;BME280;60933;46.398;-63.798;2024-03-23T06:30:29;102189.91;;;-7.27;51.08
66703;BME280;60933;46.398;-63.798;2024-03-23T06:32:55;102188.19;;;-7.28;51.13
66703;BME280;60933;46.398;-63.798;2024-03-23T06:35:22;102193.81;;;-7.31;51.47
66703;BME280;60933;46.398;-63.798;2024-03-23T06:37:49;102197.09;;;-7.32;51.64
66703;BME280;60933;46.398;-63.798;2024-03-23T06:40:15;102184.44;;;-7.33;52.03
66703;BME280;60933;46.398;-63.798;2024-03-23T06:42:42;102179.44;;;-7.33;52.20
66703;BME280;60933;46.398;-63.798;2024-03-23T06:45:09;102181.59;;;-7.38;52.41
66703;BME280;60933;46.398;-63.798;2024-03-23T06:47:36;102192.53;;;-7.37;52.86
66703;BME280;60933;46.398;-63.798;2024-03-23T06:50:03;102188.38;;;-7.37;52.39
66703;BME280;60933;46.398;-63.798;2024-03-23T06:52:30;102176.38;;;-7.41;52.17
66703;BME280;60933;46.398;-63.798;2024-03-23T06:54:58;102178.66;;;-7.44;51.61
66703;BME280;60933;46.398;-63.798;2024-03-23T06:57:24;102185.34;;;-7.44;51.99
66703;BME280;60933;46.398;-63.798;2024-03-23T06:59:51;102195.38;;;-7.44;51.32
66703;BME280;60933;46.398;-63.798;2024-03-23T07:02:17;102208.44;;;-7.49;51.31
66703;BME280;60933;46.398;-63.798;2024-03-23T07:04:44;102223.47;;;-7.49;51.36
66703;BME280;60933;46.398;-63.798;2024-03-23T07:07:11;102213.44;;;-7.49;51.39
66703;BME280;60933;46.398;-63.798;2024-03-23T07:09:37;102235.94;;;-7.50;51.34
66703;BME280;60933;46.398;-63.798;2024-03-23T07:12:04;102249.13;;;-7.53;51.84
66703;BME280;60933;46.398;-63.798;2024-03-23T07:14:31;102243.22;;;-7.53;51.52
66703;BME280;60933;46.398;-63.798;2024-03-23T07:16:58;102234.84;;;-7.54;52.40
66703;BME280;60933;46.398;-63.798;2024-03-23T07:19:24;102236.13;;;-7.59;52.82
66703;BME280;60933;46.398;-63.798;2024-03-23T07:21:51;102241.16;;;-7.59;53.07
66703;BME280;60933;46.398;-63.798;2024-03-23T07:24:17;102243.94;;;-7.66;53.45
66703;BME280;60933;46.398;-63.798;2024-03-23T07:26:44;102243.13;;;-7.55;53.52
66703;BME280;60933;46.398;-63.798;2024-03-23T07:29:10;102249.63;;;-7.57;54.00
66703;BME280;60933;46.398;-63.798;2024-03-23T07:31:37;102257.31;;;-7.55;54.09
66703;BME280;60933;46.398;-63.798;2024-03-23T07:34:04;102248.78;;;-7.57;54.38
66703;BME280;60933;46.398;-63.798;2024-03-23T07:36:32;102247.13;;;-7.57;54.57
66703;BME280;60933;46.398;-63.798;2024-03-23T07:38:58;102265.69;;;-7.55;55.38
66703;BME280;60933;46.398;-63.798;2024-03-23T07:41:25;102272.88;;;-7.59;55.16
66703;BME280;60933;46.398;-63.798;2024-03-23T07:43:53;102255.97;;;-7.62;55.75
66703;BME280;60933;46.398;-63.798;2024-03-23T07:46:20;102265.91;;;-7.64;56.56
66703;BME280;60933;46.398;-63.798;2024-03-23T07:48:47;102264.69;;;-7.57;56.21
66703;BME280;60933;46.398;-63.798;2024-03-23T07:51:22;102278.88;;;-7.57;56.08
66703;BME280;60933;46.398;-63.798;2024-03-23T07:53:49;102279.53;;;-7.60;56.03
66703;BME280;60933;46.398;-63.798;2024-03-23T07:56:16;102270.78;;;-7.65;55.58
66703;BME280;60933;46.398;-63.798;2024-03-23T07:58:44;102285.63;;;-7.68;56.04
66703;BME280;60933;46.398;-63.798;2024-03-23T08:01:13;102282.00;;;-7.72;56.44
66703;BME280;60933;46.398;-63.798;2024-03-23T08:03:42;102285.38;;;-7.71;56.08
66703;BME280;60933;46.398;-63.798;2024-03-23T08:06:14;102284.50;;;-7.72;56.32
66703;BME280;60933;46.398;-63.798;2024-03-23T08:08:42;102297.16;;;-7.70;56.60
66703;BME280;60933;46.398;-63.798;2024-03-23T08:11:09;102285.16;;;-7.74;56.66
66703;BME280;60933;46.398;-63.798;2024-03-23T08:13:37;102290.94;;;-7.75;56.59
66703;BME280;60933;46.398;-63.798;2024-03-23T08:16:03;102302.22;;;-7.81;55.12
66703;BME280;60933;46.398;-63.798;2024-03-23T08:18:31;102301.47;;;-7.80;55.10
66703;BME280;60933;46.398;-63.798;2024-03-23T08:20:58;102299.25;;;-7.87;55.86
66703;BME280;60933;46.398;-63.798;2024-03-23T08:23:26;102295.00;;;-7.88;55.55
66703;BME280;60933;46.398;-63.798;2024-03-23T08:25:58;102312.03;;;-7.84;55.68
66703;BME280;60933;46.398;-63.798;2024-03-23T08:28:25;102323.59;;;-7.86;56.33
66703;BME280;60933;46.398;-63.798;2024-03-23T08:30:53;102313.44;;;-7.87;56.71
66703;BME280;60933;46.398;-63.798;2024-03-23T08:33:20;102305.56;;;-7.92;57.06
66703;BME280;60933;46.398;-63.798;2024-03-23T08:36:00;102325.84;;;-7.89;56.23
66703;BME280;60933;46.398;-63.798;2024-03-23T08:38:28;102334.91;;;-7.91;55.98
66703;BME280;60933;46.398;-63.798;2024-03-23T08:41:08;102347.53;;;-7.89;56.25
66703;BME280;60933;46.398;-63.798;2024-03-23T08:43:39;102346.44;;;-7.93;56.28
66703;BME280;60933;46.398;-63.798;2024-03-23T08:46:10;102359.22;;;-7.90;56.77
66703;BME280;60933;46.398;-63.798;2024-03-23T08:48:39;102354.22;;;-7.90;55.56
66703;BME280;60933;46.398;-63.798;2024-03-23T08:51:07;102353.31;;;-7.90;55.83
66703;BME280;60933;46.398;-63.798;2024-03-23T08:53:37;102370.84;;;-7.90;56.12
66703;BME280;60933;46.398;-63.798;2024-03-23T08:56:05;102365.84;;;-7.90;57.27
66703;BME280;60933;46.398;-63.798;2024-03-23T08:58:32;102361.72;;;-7.90;57.25
66703;BME280;60933;46.398;-63.798;2024-03-23T09:01:13;102359.22;;;-7.90;58.52
66703;BME280;60933;46.398;-63.798;2024-03-23T09:03:39;102351.16;;;-7.86;57.56
66703;BME280;60933;46.398;-63.798;2024-03-23T09:06:11;102355.19;;;-7.88;59.04
66703;BME280;60933;46.398;-63.798;2024-03-23T09:08:38;102345.16;;;-7.88;59.03
66703;BME280;60933;46.398;-63.798;2024-03-23T09:11:08;102364.44;;;-7.87;58.79
66703;BME280;60933;46.398;-63.798;2024-03-23T09:13:35;102356.06;;;-7.87;59.34
66703;BME280;60933;46.398;-63.798;2024-03-23T09:16:02;102353.56;;;-7.87;59.25
66703;BME280;60933;46.398;-63.798;2024-03-23T09:18:35;102362.69;;;-7.88;58.86
66703;BME280;60933;46.398;-63.798;2024-03-23T09:21:02;102365.84;;;-7.90;59.10
66703;BME280;60933;46.398;-63.798;2024-03-23T09:23:28;102357.63;;;-8.00;59.35
66703;BME280;60933;46.398;-63.798;2024-03-23T09:25:56;102379.03;;;-7.93;59.43
66703;BME280;60933;46.398;-63.798;2024-03-23T09:28:22;102386.44;;;-7.95;59.05
66703;BME280;60933;46.398;-63.798;2024-03-23T09:30:49;102396.47;;;-7.95;58.64
66703;BME280;60933;46.398;-63.798;2024-03-23T09:33:15;102389.44;;;-7.99;58.72
66703;BME280;60933;46.398;-63.798;2024-03-23T09:35:42;102386.84;;;-8.00;59.19
66703;BME280;60933;46.398;-63.798;2024-03-23T09:38:10;102371.31;;;-8.06;58.56
66703;BME280;60933;46.398;-63.798;2024-03-23T09:40:41;102383.97;;;-8.05;58.43
66703;BME280;60933;46.398;-63.798;2024-03-23T09:43:11;102380.00;;;-8.13;58.84
66703;BME280;60933;46.398;-63.798;2024-03-23T09:45:41;102378.38;;;-8.13;59.84
66703;BME280;60933;46.398;-63.798;2024-03-23T09:48:09;102372.50;;;-8.23;59.92
66703;BME280;60933;46.398;-63.798;2024-03-23T09:50:43;102390.41;;;-8.19;59.56
66703;BME280;60933;46.398;-63.798;2024-03-23T09:53:11;102390.41;;;-8.19;59.45
66703;BME280;60933;46.398;-63.798;2024-03-23T09:55:39;102391.41;;;-8.17;59.20
66703;BME280;60933;46.398;-63.798;2024-03-23T09:58:07;102400.78;;;-8.14;60.13
66703;BME280;60933;46.398;-63.798;2024-03-23T10:00:35;102405.59;;;-8.17;60.57
66703;BME280;60933;46.398;-63.798;2024-03-23T10:03:02;102410.59;;;-8.17;60.16
66703;BME280;60933;46.398;-63.798;2024-03-23T10:05:29;102418.97;;;-8.17;59.85
66703;BME280;60933;46.398;-63.798;2024-03-23T10:07:58;102421.47;;;-8.17;60.10
66703;BME280;60933;46.398;-63.798;2024-03-23T10:10:28;102413.97;;;-8.17;60.82
66703;BME280;60933;46.398;-63.798;2024-03-23T10:12:54;102427.25;;;-8.18;60.51
66703;BME280;60933;46.398;-63.798;2024-03-23T10:15:25;102427.25;;;-8.18;59.63
66703;BME280;60933;46.398;-63.798;2024-03-23T10:17:52;102439.00;;;-8.17;61.23
66703;BME280;60933;46.398;-63.798;2024-03-23T10:20:22;102454.06;;;-8.17;61.51
66703;BME280;60933;46.398;-63.798;2024-03-23T10:22:50;102468.09;;;-8.19;61.13
66703;BME280;60933;46.398;-63.798;2024-03-23T10:25:23;102474.56;;;-8.11;60.53
66703;BME280;60933;46.398;-63.798;2024-03-23T10:27:59;102489.88;;;-8.07;59.59
66703;BME280;60933;46.398;-63.798;2024-03-23T10:30:26;102490.72;;;-8.07;60.03
66703;BME280;60933;46.398;-63.798;2024-03-23T10:33:10;102502.63;;;-8.04;59.93
66703;BME280;60933;46.398;-63.798;2024-03-23T10:35:38;102505.91;;;-8.05;59.53
66703;BME280;60933;46.398;-63.798;2024-03-23T10:38:05;102501.38;;;-7.99;59.42
66703;BME280;60933;46.398;-63.798;2024-03-23T10:40:36;102506.63;;;-7.96;59.70
66703;BME280;60933;46.398;-63.798;2024-03-23T10:43:03;102500.75;;;-7.97;59.68
66703;BME280;60933;46.398;-63.798;2024-03-23T10:45:31;102506.00;;;-7.93;59.88
66703;BME280;60933;46.398;-63.798;2024-03-23T10:47:57;102509.84;;;-7.87;60.28
66703;BME280;60933;46.398;-63.798;2024-03-23T10:50:24;102503.59;;;-7.82;59.82
66703;BME280;60933;46.398;-63.798;2024-03-23T10:52:53;102510.69;;;-7.76;60.74
66703;BME280;60933;46.398;-63.798;2024-03-23T10:55:20;102518.38;;;-7.74;60.50
66703;BME280;60933;46.398;-63.798;2024-03-23T10:57:54;102516.31;;;-7.68;60.12
66703;BME280;60933;46.398;-63.798;2024-03-23T11:00:21;102508.41;;;-7.63;59.53
66703;BME280;60933;46.398;-63.798;2024-03-23T11:02:48;102501.09;;;-7.59;60.59
66703;BME280;60933;46.398;-63.798;2024-03-23T11:07:51;102508.34;;;-7.52;59.46
66703;BME280;60933;46.398;-63.798;2024-03-23T11:10:25;102509.72;;;-7.45;59.52
66703;BME280;60933;46.398;-63.798;2024-03-23T11:12:53;102520.97;;;-7.40;59.19
66703;BME280;60933;46.398;-63.798;2024-03-23T11:15:20;102512.16;;;-7.35;59.10
66703;BME280;60933;46.398;-63.798;2024-03-23T11:18:06;102511.75;;;-7.29;59.72
66703;BME280;60933;46.398;-63.798;2024-03-23T11:20:38;102511.59;;;-7.21;60.64
66703;BME280;60933;46.398;-63.798;2024-03-23T11:23:04;102507.78;;;-7.16;59.71
66703;BME280;60933;46.398;-63.798;2024-03-23T11:25:31;102514.91;;;-7.10;59.64
66703;BME280;60933;46.398;-63.798;2024-03-23T11:28:19;102515.88;;;-7.08;58.77
66703;BME280;60933;46.398;-63.798;2024-03-23T11:30:45;102500.41;;;-7.02;58.37
66703;BME280;60933;46.398;-63.798;2024-03-23T11:33:12;102498.03;;;-7.01;58.27
66703;BME280;60933;46.398;-63.798;2024-03-23T11:35:39;102485.06;;;-6.95;58.23
66703;BME280;60933;46.398;-63.798;2024-03-23T11:38:14;102501.56;;;-6.87;58.35
66703;BME280;60933;46.398;-63.798;2024-03-23T11:40:42;102496.47;;;-6.76;58.56
66703;BME280;60933;46.398;-63.798;2024-03-23T11:43:14;102485.13;;;-6.71;59.69
66703;BME280;60933;46.398;-63.798;2024-03-23T11:45:46;102498.38;;;-6.62;59.32
66703;BME280;60933;46.398;-63.798;2024-03-23T11:48:18;102511.81;;;-6.49;58.12
66703;BME280;60933;46.398;-63.798;2024-03-23T11:50:46;102509.75;;;-6.43;58.01
66703;BME280;60933;46.398;-63.798;2024-03-23T11:53:22;102530.66;;;-6.32;57.81
66703;BME280;60933;46.398;-63.798;2024-03-23T11:58:21;102544.75;;;-6.34;56.61
66703;BME280;60933;46.398;-63.798;2024-03-23T12:00:58;102548.47;;;-6.29;56.93
66703;BME280;60933;46.398;-63.798;2024-03-23T12:03:26;102551.31;;;-6.25;56.68
66703;BME280;60933;46.398;-63.798;2024-03-23T12:05:56;102551.97;;;-6.27;57.16
66703;BME280;60933;46.398;-63.798;2024-03-23T12:08:30;102551.75;;;-6.18;56.41
66703;BME280;60933;46.398;-63.798;2024-03-23T12:11:17;102540.94;;;-6.17;57.55
66703;BME280;60933;46.398;-63.798;2024-03-23T12:13:45;102527.28;;;-6.09;57.55
66703;BME280;60933;46.398;-63.798;2024-03-23T12:16:18;102529.72;;;-6.11;57.12
66703;BME280;60933;46.398;-63.798;2024-03-23T12:18:49;102521.28;;;-6.11;57.12
66703;BME280;60933;46.398;-63.798;2024-03-23T12:21:17;102527.53;;;-6.06;56.94
66703;BME280;60933;46.398;-63.798;2024-03-23T12:23:44;102528.91;;;-5.98;57.24
66703;BME280;60933;46.398;-63.798;2024-03-23T12:26:13;102512.72;;;-5.90;57.39
66703;BME280;60933;46.398;-63.798;2024-03-23T12:28:39;102525.19;;;-5.79;57.35
66703;BME280;60933;46.398;-63.798;2024-03-23T12:31:06;102521.69;;;-5.81;56.89
66703;BME280;60933;46.398;-63.798;2024-03-23T12:33:33;102552.53;;;-5.72;57.26
66703;BME280;60933;46.398;-63.798;2024-03-23T12:35:59;102543.13;;;-5.63;56.46
66703;BME280;60933;46.398;-63.798;2024-03-23T12:38:26;102552.84;;;-5.56;56.73
66703;BME280;60933;46.398;-63.798;2024-03-23T12:40:52;102548.56;;;-5.45;55.98
66703;BME280;60933;46.398;-63.798;2024-03-23T12:43:19;102552.06;;;-5.43;55.88
66703;BME280;60933;46.398;-63.798;2024-03-23T12:45:49;102546.78;;;-5.34;56.10
66703;BME280;60933;46.398;-63.798;2024-03-23T12:48:16;102536.38;;;-5.27;56.14
66703;BME280;60933;46.398;-63.798;2024-03-23T12:50:43;102549.59;;;-5.17;55.97
66703;BME280;60933;46.398;-63.798;2024-03-23T12:53:09;102555.72;;;-5.14;55.31
66703;BME280;60933;46.398;-63.798;2024-03-23T12:55:36;102568.84;;;-5.06;55.27
66703;BME280;60933;46.398;-63.798;2024-03-23T12:58:03;102584.38;;;-5.00;55.90
66703;BME280;60933;46.398;-63.798;2024-03-23T13:00:30;102595.28;;;-4.87;56.60
66703;BME280;60933;46.398;-63.798;2024-03-23T13:02:57;102601.41;;;-4.84;56.39
66703;BME280;60933;46.398;-63.798;2024-03-23T13:05:24;102604.22;;;-4.79;56.50
66703;BME280;60933;46.398;-63.798;2024-03-23T13:07:50;102638.63;;;-4.68;56.80
66703;BME280;60933;46.398;-63.798;2024-03-23T13:10:17;102633.97;;;-4.62;56.85
66703;BME280;60933;46.398;-63.798;2024-03-23T13:12:43;102646.78;;;-4.58;56.56
66703;BME280;60933;46.398;-63.798;2024-03-23T13:15:10;102650.16;;;-4.46;56.06
66703;BME280;60933;46.398;-63.798;2024-03-23T13:17:36;102644.34;;;-4.45;55.27
66703;BME280;60933;46.398;-63.798;2024-03-23T13:20:03;102650.56;;;-4.40;55.30
66703;BME280;60933;46.398;-63.798;2024-03-23T13:22:30;102651.72;;;-4.35;55.35
66703;BME280;60933;46.398;-63.798;2024-03-23T13:24:56;102651.97;;;-4.18;56.65
66703;BME280;60933;46.398;-63.798;2024-03-23T13:27:23;102675.59;;;-4.04;56.08
66703;BME280;60933;46.398;-63.798;2024-03-23T13:29:50;102638.81;;;-4.14;54.24
66703;BME280;60933;46.398;-63.798;2024-03-23T13:32:16;102652.13;;;-4.03;54.79
66703;BME280;60933;46.398;-63.798;2024-03-23T13:34:43;102648.34;;;-3.97;54.81